createdAt,value
2022-10-23T00:00:30.784Z,90.90
2022-10-23T00:01:30.739Z,90.59
2022-10-23T00:02:30.749Z,90.49
2022-10-23T00:03:30.738Z,90.80
2022-10-23T00:04:30.673Z,90.70
2022-10-23T00:05:30.668Z,90.39
2022-10-23T00:06:30.693Z,90.59
2022-10-23T00:08:30.643Z,90.90
2022-10-23T00:09:30.671Z,90.70
2022-10-23T00:10:30.614Z,90.49
2022-10-23T00:11:30.599Z,90.49
2022-10-23T00:12:30.608Z,90.59
2022-10-23T00:13:30.591Z,90.49
2022-10-23T00:14:30.572Z,90.59
2022-10-23T00:15:30.581Z,90.70
2022-10-23T00:16:30.523Z,90.74
2022-10-23T00:17:30.552Z,90.74
2022-10-23T00:18:30.521Z,90.64
2022-10-23T00:19:30.511Z,90.53
2022-10-23T00:20:30.538Z,90.43
2022-10-23T00:21:30.486Z,90.53
2022-10-23T00:22:30.469Z,90.53
2022-10-23T00:23:30.485Z,90.64
2022-10-23T00:24:30.487Z,90.74
2022-10-23T00:25:30.439Z,90.53
2022-10-23T00:26:30.437Z,90.64
2022-10-23T00:27:30.414Z,90.74
2022-10-23T00:28:30.416Z,90.74
2022-10-23T00:29:30.392Z,90.84
2022-10-23T00:30:30.407Z,90.74
2022-10-23T00:31:30.396Z,90.74
2022-10-23T00:33:30.344Z,90.53
2022-10-23T00:34:30.327Z,90.43
2022-10-23T00:35:30.305Z,90.53
2022-10-23T00:36:30.346Z,90.53
2022-10-23T00:37:30.286Z,90.23
2022-10-23T00:38:30.288Z,90.12
2022-10-23T00:39:30.281Z,90.02
2022-10-23T00:40:30.264Z,90.23
2022-10-23T00:41:30.267Z,90.23
2022-10-23T00:42:30.285Z,90.23
2022-10-23T00:43:30.234Z,90.02
2022-10-23T00:44:30.248Z,90.12
2022-10-23T00:45:30.211Z,90.02
2022-10-23T00:46:30.231Z,90.43
2022-10-23T00:47:30.212Z,90.43
2022-10-23T00:48:30.158Z,90.64
2022-10-23T00:49:31.667Z,90.64
2022-10-23T00:50:30.139Z,90.64
2022-10-23T00:51:30.149Z,90.53
2022-10-23T00:52:30.202Z,90.68
2022-10-23T00:53:30.109Z,90.43
2022-10-23T00:54:30.090Z,90.33
2022-10-23T00:55:30.098Z,90.43
2022-10-23T00:56:30.070Z,90.43
2022-10-23T00:57:30.090Z,90.33
2022-10-23T00:58:30.085Z,90.12
2022-10-23T00:59:30.039Z,90.23
2022-10-23T01:00:30.044Z,90.23
2022-10-23T01:01:30.127Z,90.53
2022-10-23T01:02:30.071Z,90.58
2022-10-23T01:03:30.026Z,90.78
2022-10-23T01:04:30.016Z,90.88
2022-10-23T01:05:29.975Z,90.88
2022-10-23T01:06:29.954Z,90.78
2022-10-23T01:07:29.963Z,90.58
2022-10-23T01:08:29.947Z,90.58
2022-10-23T01:09:29.961Z,90.47
2022-10-23T01:10:29.934Z,90.47
2022-10-23T01:11:29.948Z,90.58
2022-10-23T01:12:29.885Z,90.47
2022-10-23T01:13:29.880Z,90.47
2022-10-23T01:14:29.870Z,90.43
2022-10-23T01:15:29.866Z,90.64
2022-10-23T01:16:29.836Z,90.47
2022-10-23T01:17:29.868Z,90.47
2022-10-23T01:18:29.836Z,90.37
2022-10-23T01:19:29.847Z,90.37
2022-10-23T01:20:29.807Z,90.58
2022-10-23T01:21:29.786Z,90.78
2022-10-23T01:22:29.791Z,90.68
2022-10-23T01:23:29.766Z,90.99
2022-10-23T01:24:29.748Z,91.09
2022-10-23T01:25:29.788Z,91.19
2022-10-23T01:26:29.760Z,91.09
2022-10-23T01:27:29.766Z,90.88
2022-10-23T01:28:29.702Z,91.09
2022-10-23T01:29:29.713Z,91.19
2022-10-23T01:30:29.802Z,91.19
2022-10-23T01:31:29.727Z,91.09
2022-10-23T01:32:29.678Z,90.99
2022-10-23T01:33:29.680Z,91.09
2022-10-23T01:34:29.659Z,90.99
2022-10-23T01:35:29.649Z,90.99
2022-10-23T01:36:29.642Z,90.99
2022-10-23T01:37:29.623Z,90.88
2022-10-23T01:38:29.622Z,91.09
2022-10-23T01:39:29.611Z,91.13
2022-10-23T01:40:29.642Z,91.23
2022-10-23T01:41:29.542Z,91.23
2022-10-23T01:42:29.567Z,91.33
2022-10-23T01:43:29.561Z,91.23
2022-10-23T01:44:29.532Z,91.33
2022-10-23T01:45:29.503Z,91.23
2022-10-23T01:46:29.527Z,91.13
2022-10-23T01:47:29.499Z,91.44
2022-10-23T01:48:29.508Z,91.44
2022-10-23T01:49:29.454Z,91.54
2022-10-23T01:50:29.445Z,91.33
2022-10-23T01:51:29.453Z,91.23
2022-10-23T01:52:29.458Z,91.33
2022-10-23T01:53:29.460Z,91.23
2022-10-23T01:54:29.414Z,90.92
2022-10-23T01:55:29.439Z,91.13
2022-10-23T01:56:29.391Z,91.03
2022-10-23T01:57:29.440Z,91.23
2022-10-23T01:58:29.402Z,91.44
2022-10-23T01:59:29.361Z,91.33
2022-10-23T02:00:29.359Z,91.03
2022-10-23T02:01:29.438Z,91.33
2022-10-23T02:02:29.342Z,91.23
2022-10-23T02:03:29.363Z,91.13
2022-10-23T02:04:29.303Z,91.44
2022-10-23T02:05:29.284Z,91.54
2022-10-23T02:06:29.292Z,91.44
2022-10-23T02:07:29.294Z,91.44
2022-10-23T02:08:29.283Z,91.13
2022-10-23T02:09:29.273Z,91.13
2022-10-23T02:10:29.241Z,90.92
2022-10-23T02:11:29.224Z,91.03
2022-10-23T02:12:29.208Z,90.92
2022-10-23T02:13:29.241Z,91.03
2022-10-23T02:14:29.195Z,91.23
2022-10-23T02:15:29.176Z,91.33
2022-10-23T02:16:29.162Z,91.27
2022-10-23T02:17:29.157Z,91.27
2022-10-23T02:18:29.136Z,91.27
2022-10-23T02:19:29.144Z,91.48
2022-10-23T02:20:29.126Z,91.38
2022-10-23T02:21:29.126Z,91.38
2022-10-23T02:22:29.096Z,91.69
2022-10-23T02:23:29.088Z,91.89
2022-10-23T02:24:29.064Z,91.69
2022-10-23T02:25:29.105Z,91.58
2022-10-23T02:26:29.034Z,91.99
2022-10-23T02:27:29.039Z,91.89
2022-10-23T02:28:29.005Z,91.89
2022-10-23T02:29:29.010Z,91.89
2022-10-23T02:30:28.998Z,91.99
2022-10-23T02:31:29.036Z,92.03
2022-10-23T02:32:28.986Z,92.10
2022-10-23T02:33:28.947Z,92.19
2022-10-23T02:34:28.936Z,92.19
2022-10-23T02:35:28.966Z,92.44
2022-10-23T02:36:28.958Z,92.34
2022-10-23T02:37:28.918Z,92.55
2022-10-23T02:38:28.914Z,92.55
2022-10-23T02:39:28.887Z,92.55
2022-10-23T02:40:28.892Z,92.75
2022-10-23T02:41:28.933Z,92.85
2022-10-23T02:42:28.857Z,92.85
2022-10-23T02:43:28.862Z,92.75
2022-10-23T02:44:28.819Z,92.65
2022-10-23T02:45:28.844Z,92.55
2022-10-23T02:46:28.872Z,92.34
2022-10-23T02:47:28.812Z,92.24
2022-10-23T02:48:28.779Z,92.34
2022-10-23T02:49:28.772Z,92.14
2022-10-23T02:50:28.762Z,92.34
2022-10-23T02:51:28.779Z,92.14
2022-10-23T02:52:28.778Z,92.14
2022-10-23T02:53:28.712Z,92.24
2022-10-23T02:54:28.719Z,92.34
2022-10-23T02:55:28.728Z,92.44
2022-10-23T02:56:28.736Z,92.34
2022-10-23T02:57:28.696Z,92.55
2022-10-23T02:58:28.692Z,92.59
2022-10-23T02:59:28.667Z,92.69
2022-10-23T03:00:28.687Z,92.59
2022-10-23T03:01:28.753Z,92.69
2022-10-23T03:02:28.710Z,92.59
2022-10-23T03:03:28.605Z,92.59
2022-10-23T03:04:28.637Z,92.59
2022-10-23T03:05:28.638Z,92.79
2022-10-23T03:06:28.599Z,93.20
2022-10-23T03:07:28.599Z,93.41
2022-10-23T03:08:28.583Z,93.71
2022-10-23T03:09:28.559Z,93.62
2022-10-23T03:10:28.566Z,93.71
2022-10-23T03:11:28.532Z,93.71
2022-10-23T03:12:28.520Z,93.71
2022-10-23T03:13:28.517Z,93.71
2022-10-23T03:14:28.510Z,93.71
2022-10-23T03:15:28.478Z,93.62
2022-10-23T03:16:28.499Z,93.62
2022-10-23T03:17:28.486Z,93.30
2022-10-23T03:18:28.461Z,93.20
2022-10-23T03:19:28.433Z,93.00
2022-10-23T03:20:28.447Z,93.10
2022-10-23T03:21:28.432Z,93.00
2022-10-23T03:22:28.389Z,92.90
2022-10-23T03:23:28.374Z,93.10
2022-10-23T03:24:28.399Z,93.10
2022-10-23T03:25:28.399Z,93.00
2022-10-23T03:26:28.385Z,93.10
2022-10-23T03:28:28.334Z,92.90
2022-10-23T03:29:28.347Z,92.79
2022-10-23T03:30:28.291Z,92.69
2022-10-23T03:31:28.294Z,92.38
2022-10-23T03:32:28.316Z,92.38
2022-10-23T03:33:28.262Z,92.28
2022-10-23T03:34:28.263Z,92.90
2022-10-23T03:35:28.288Z,93.10
2022-10-23T03:36:28.254Z,92.90
2022-10-23T03:37:28.236Z,92.69
2022-10-23T03:38:28.205Z,93.00
2022-10-23T03:39:28.227Z,93.10
2022-10-23T03:40:28.175Z,93.30
2022-10-23T03:41:28.194Z,93.55
2022-10-23T03:42:28.175Z,93.66
2022-10-23T03:43:28.189Z,93.86
2022-10-23T03:44:28.137Z,93.76
2022-10-23T03:45:28.135Z,93.66
2022-10-23T03:46:28.128Z,93.76
2022-10-23T03:47:28.096Z,93.96
2022-10-23T03:48:28.125Z,93.96
2022-10-23T03:49:28.101Z,93.96
2022-10-23T03:50:28.080Z,93.76
2022-10-23T03:51:28.078Z,93.86
2022-10-23T03:52:28.062Z,94.17
2022-10-23T03:53:28.079Z,94.17
2022-10-23T03:54:28.048Z,93.76
2022-10-23T03:55:28.015Z,93.71
2022-10-23T03:56:28.016Z,93.51
2022-10-23T03:57:28.003Z,93.30
2022-10-23T03:58:27.971Z,93.10
2022-10-23T03:59:27.979Z,93.41
2022-10-23T04:00:27.962Z,93.41
2022-10-23T04:01:28.140Z,93.20
2022-10-23T04:02:28.012Z,93.00
2022-10-23T04:03:27.933Z,92.79
2022-10-23T04:04:27.907Z,92.90
2022-10-23T04:05:27.901Z,93.00
2022-10-23T04:06:27.900Z,92.79
2022-10-23T04:07:27.916Z,93.00
2022-10-23T04:08:27.862Z,93.10
2022-10-23T04:09:27.852Z,93.20
2022-10-23T04:10:27.883Z,93.10
2022-10-23T04:11:27.835Z,92.69
2022-10-23T04:12:27.856Z,92.69
2022-10-23T04:13:27.811Z,92.49
2022-10-23T04:14:27.828Z,92.63
2022-10-23T04:15:27.803Z,92.83
2022-10-23T04:16:27.763Z,92.94
2022-10-23T04:18:27.795Z,92.94
2022-10-23T04:19:27.726Z,92.83
2022-10-23T04:20:27.739Z,92.63
2022-10-23T04:21:27.718Z,92.53
2022-10-23T04:22:28.582Z,92.53
2022-10-23T04:23:27.685Z,92.63
2022-10-23T04:24:27.725Z,92.38
2022-10-23T04:25:27.708Z,92.32
2022-10-23T04:26:27.646Z,92.32
2022-10-23T04:27:27.649Z,92.12
2022-10-23T04:28:27.636Z,92.12
2022-10-23T04:29:27.617Z,92.32
2022-10-23T04:30:27.671Z,92.43
2022-10-23T04:31:27.623Z,92.32
2022-10-23T04:32:27.591Z,92.32
2022-10-23T04:33:27.596Z,92.43
2022-10-23T04:34:27.617Z,92.43
2022-10-23T04:35:27.611Z,92.43
2022-10-23T04:36:27.565Z,92.32
2022-10-23T04:37:27.527Z,92.32
2022-10-23T04:38:27.522Z,92.32
2022-10-23T04:39:27.523Z,92.43
2022-10-23T04:40:27.510Z,92.32
2022-10-23T04:41:27.510Z,92.32
2022-10-23T04:43:27.486Z,92.12
2022-10-23T04:44:27.441Z,92.12
2022-10-23T04:45:27.501Z,92.12
2022-10-23T04:46:27.454Z,92.02
2022-10-23T04:47:27.446Z,92.12
2022-10-23T04:48:29.180Z,92.22
2022-10-23T04:49:27.410Z,92.22
2022-10-23T04:50:27.397Z,92.22
2022-10-23T04:51:27.415Z,92.02
2022-10-23T04:52:27.383Z,92.02
2022-10-23T04:53:27.347Z,92.02
2022-10-23T04:54:27.323Z,92.22
2022-10-23T04:55:27.324Z,92.43
2022-10-23T04:56:27.338Z,92.43
2022-10-23T04:57:27.324Z,92.63
2022-10-23T04:58:27.312Z,92.94
2022-10-23T04:59:27.298Z,92.83
2022-10-23T05:00:27.406Z,92.63
2022-10-23T05:01:27.423Z,92.43
2022-10-23T05:02:27.235Z,92.22
2022-10-23T05:03:27.298Z,92.12
2022-10-23T05:04:27.230Z,92.02
2022-10-23T05:05:27.239Z,92.22
2022-10-23T05:06:27.231Z,92.43
2022-10-23T05:07:27.203Z,92.63
2022-10-23T05:08:27.180Z,92.53
2022-10-23T05:09:27.157Z,92.43
2022-10-23T05:10:27.179Z,92.32
2022-10-23T05:11:27.171Z,92.22
2022-10-23T05:12:27.118Z,91.82
2022-10-23T05:13:27.132Z,91.50
2022-10-23T05:14:27.112Z,91.40
2022-10-23T05:15:27.110Z,91.61
2022-10-23T05:16:27.099Z,91.82
2022-10-23T05:17:27.060Z,92.12
2022-10-23T05:18:27.050Z,92.22
2022-10-23T05:19:27.083Z,92.47
2022-10-23T05:20:27.060Z,92.68
2022-10-23T05:21:27.024Z,92.78
2022-10-23T05:22:27.037Z,92.78
2022-10-23T05:23:27.002Z,92.88
2022-10-23T05:24:26.996Z,92.88
2022-10-23T05:25:27.069Z,93.08
2022-10-23T05:26:26.975Z,93.08
2022-10-23T05:27:26.974Z,93.29
2022-10-23T05:28:26.961Z,93.39
2022-10-23T05:29:26.932Z,93.39
2022-10-23T05:30:26.936Z,93.29
2022-10-23T05:31:26.947Z,93.08
2022-10-23T05:32:26.931Z,92.88
2022-10-23T05:33:26.887Z,92.78
2022-10-23T05:34:26.880Z,92.88
2022-10-23T05:35:26.891Z,93.08
2022-10-23T05:36:26.887Z,93.08
2022-10-23T05:37:26.849Z,93.29
2022-10-23T05:38:26.838Z,93.39
2022-10-23T05:39:26.832Z,93.49
2022-10-23T05:40:26.915Z,93.74
2022-10-23T05:41:26.864Z,93.74
2022-10-23T05:42:26.840Z,93.95
2022-10-23T05:43:26.828Z,93.74
2022-10-23T05:44:26.781Z,93.64
2022-10-23T05:45:26.760Z,93.85
2022-10-23T05:46:26.749Z,93.95
2022-10-23T05:47:26.779Z,93.74
2022-10-23T05:48:35.229Z,93.74
2022-10-23T05:49:27.743Z,93.74
2022-10-23T05:50:26.702Z,93.54
2022-10-23T05:51:26.683Z,93.54
2022-10-23T05:52:26.692Z,93.85
2022-10-23T05:53:26.732Z,94.05
2022-10-23T05:54:26.653Z,93.85
2022-10-23T05:55:26.661Z,93.74
2022-10-23T05:56:26.640Z,93.64
2022-10-23T05:57:26.616Z,93.44
2022-10-23T05:58:26.622Z,92.93
2022-10-23T05:59:26.660Z,92.93
2022-10-23T06:00:26.582Z,92.82
2022-10-23T06:01:26.653Z,92.93
2022-10-23T06:02:26.599Z,92.82
2022-10-23T06:03:26.560Z,92.72
2022-10-23T06:04:26.546Z,92.61
2022-10-23T06:05:26.610Z,92.41
2022-10-23T06:06:26.503Z,92.00
2022-10-23T06:07:26.492Z,91.90
2022-10-23T06:08:26.483Z,91.86
2022-10-23T06:09:26.489Z,91.55
2022-10-23T06:10:26.494Z,91.35
2022-10-23T06:11:26.490Z,91.44
2022-10-23T06:12:26.434Z,91.44
2022-10-23T06:13:26.458Z,91.24
2022-10-23T06:14:26.459Z,91.24
2022-10-23T06:15:26.428Z,91.03
2022-10-23T06:16:26.416Z,90.73
2022-10-23T06:17:26.406Z,90.32
2022-10-23T06:18:26.375Z,90.32
2022-10-23T06:19:26.346Z,90.42
2022-10-23T06:20:28.021Z,90.42
2022-10-23T06:21:26.372Z,90.32
2022-10-23T06:22:26.338Z,90.52
2022-10-23T06:23:26.317Z,90.52
2022-10-23T06:24:26.311Z,90.62
2022-10-23T06:25:26.300Z,90.73
2022-10-23T06:26:26.311Z,90.37
2022-10-23T06:27:26.290Z,90.07
2022-10-23T06:28:26.271Z,89.87
2022-10-23T06:29:26.251Z,89.66
2022-10-23T06:30:26.296Z,89.36
2022-10-23T06:31:26.245Z,89.36
2022-10-23T06:32:26.253Z,89.25
2022-10-23T06:33:26.199Z,89.25
2022-10-23T06:34:26.181Z,89.00
2022-10-23T06:35:26.159Z,88.90
2022-10-23T06:36:26.163Z,88.70
2022-10-23T06:37:26.154Z,88.80
2022-10-23T06:38:26.198Z,88.70
2022-10-23T06:39:28.509Z,88.90
2022-10-23T06:40:27.121Z,89.15
2022-10-23T06:41:26.106Z,89.25
2022-10-23T06:42:26.111Z,89.21
2022-10-23T06:43:26.092Z,88.80
2022-10-23T06:44:26.063Z,88.70
2022-10-23T06:45:26.082Z,88.70
2022-10-23T06:46:26.057Z,88.59
2022-10-23T06:47:26.032Z,88.49
2022-10-23T06:48:26.085Z,88.08
2022-10-23T06:49:26.037Z,88.18
2022-10-23T06:50:26.024Z,88.49
2022-10-23T06:51:26.017Z,88.29
2022-10-23T06:52:45.981Z,88.39
2022-10-23T06:53:27.005Z,88.49
2022-10-23T06:54:25.955Z,88.18
2022-10-23T06:55:26.015Z,88.49
2022-10-23T06:56:25.941Z,88.80
2022-10-23T06:57:25.914Z,88.90
2022-10-23T06:58:25.920Z,88.90
2022-10-23T06:59:25.929Z,88.70
2022-10-23T07:00:25.909Z,88.70
2022-10-23T07:01:26.187Z,88.59
2022-10-23T07:02:25.850Z,88.70
2022-10-23T07:03:25.846Z,88.84
2022-10-23T07:04:25.871Z,88.84
2022-10-23T07:05:25.847Z,88.94
2022-10-23T07:06:25.851Z,89.04
2022-10-23T07:07:25.811Z,89.04
2022-10-23T07:08:25.831Z,89.15
2022-10-23T07:09:25.813Z,89.00
2022-10-23T07:10:25.803Z,88.94
2022-10-23T07:11:25.773Z,89.00
2022-10-23T07:12:25.762Z,89.11
2022-10-23T07:13:25.753Z,88.80
2022-10-23T07:14:25.784Z,88.39
2022-10-23T07:15:25.740Z,88.14
2022-10-23T07:16:25.724Z,87.94
2022-10-23T07:17:25.694Z,87.53
2022-10-23T07:18:25.735Z,87.53
2022-10-23T07:19:25.706Z,87.32
2022-10-23T07:20:25.644Z,87.08
2022-10-23T07:21:25.651Z,86.67
2022-10-23T07:22:25.632Z,86.22
2022-10-23T07:23:25.627Z,85.61
2022-10-23T07:24:25.664Z,85.40
2022-10-23T07:25:25.631Z,85.26
2022-10-23T07:26:25.583Z,85.16
2022-10-23T07:27:25.586Z,84.91
2022-10-23T07:28:25.586Z,84.50
2022-10-23T07:29:25.543Z,84.50
2022-10-23T07:30:25.691Z,84.30
2022-10-23T07:31:27.980Z,84.30
2022-10-23T07:32:25.518Z,84.09
2022-10-23T07:33:25.496Z,83.89
2022-10-23T07:34:25.520Z,83.89
2022-10-23T07:35:25.509Z,84.30
2022-10-23T07:36:25.495Z,83.89
2022-10-23T07:37:25.458Z,83.48
2022-10-23T07:38:25.448Z,83.28
2022-10-23T07:39:25.439Z,83.04
2022-10-23T07:40:25.511Z,83.04
2022-10-23T07:41:25.418Z,82.63
2022-10-23T07:42:25.449Z,82.28
2022-10-23T07:43:25.460Z,82.18
2022-10-23T07:44:27.642Z,82.18
2022-10-23T07:45:25.381Z,81.67
2022-10-23T07:46:25.348Z,81.77
2022-10-23T07:47:25.338Z,82.01
2022-10-23T07:48:25.388Z,82.22
2022-10-23T07:49:25.330Z,81.98
2022-10-23T07:50:25.392Z,81.67
2022-10-23T07:51:25.294Z,81.57
2022-10-23T07:52:25.304Z,82.08
2022-10-23T07:53:25.261Z,81.77
2022-10-23T07:54:25.299Z,81.87
2022-10-23T07:55:25.271Z,81.57
2022-10-23T07:56:25.221Z,81.87
2022-10-23T07:57:25.234Z,81.37
2022-10-23T07:58:25.215Z,81.32
2022-10-23T07:59:25.218Z,81.53
2022-10-23T08:01:25.269Z,81.43
2022-10-23T08:02:25.188Z,80.78
2022-10-23T08:03:25.143Z,80.57
2022-10-23T08:04:25.177Z,80.37
2022-10-23T08:05:25.141Z,80.07
2022-10-23T08:06:25.145Z,80.07
2022-10-23T08:07:25.168Z,80.27
2022-10-23T08:08:25.096Z,80.47
2022-10-23T08:09:25.121Z,80.98
2022-10-23T08:10:25.065Z,81.29
2022-10-23T08:11:25.069Z,81.18
2022-10-23T08:12:25.099Z,81.29
2022-10-23T08:13:25.080Z,81.29
2022-10-23T08:14:25.070Z,81.18
2022-10-23T08:15:25.020Z,80.98
2022-10-23T08:16:25.026Z,80.98
2022-10-23T08:17:27.585Z,81.29
2022-10-23T08:18:24.997Z,80.88
2022-10-23T08:19:24.981Z,80.64
2022-10-23T08:20:24.981Z,80.74
2022-10-23T08:21:24.959Z,80.94
2022-10-23T08:22:24.930Z,80.94
2022-10-23T08:23:24.973Z,81.04
2022-10-23T08:24:24.920Z,80.74
2022-10-23T08:25:26.063Z,80.33
2022-10-23T08:26:24.934Z,80.43
2022-10-23T08:27:24.873Z,80.54
2022-10-23T08:28:24.884Z,80.64
2022-10-23T08:29:24.883Z,80.84
2022-10-23T08:30:24.830Z,81.04
2022-10-23T08:31:24.834Z,80.94
2022-10-23T08:32:24.812Z,81.15
2022-10-23T08:33:24.822Z,81.45
2022-10-23T08:34:24.841Z,81.35
2022-10-23T08:35:24.801Z,81.56
2022-10-23T08:36:24.826Z,81.11
2022-10-23T08:37:24.761Z,81.11
2022-10-23T08:38:24.746Z,81.21
2022-10-23T08:39:24.733Z,81.01
2022-10-23T08:40:24.776Z,80.87
2022-10-23T08:41:24.725Z,80.66
2022-10-23T08:42:24.759Z,80.56
2022-10-23T08:43:24.688Z,80.36
2022-10-23T08:44:24.678Z,80.11
2022-10-23T08:45:24.699Z,80.02
2022-10-23T08:46:24.699Z,79.71
2022-10-23T08:47:24.671Z,79.91
2022-10-23T08:48:24.628Z,79.71
2022-10-23T08:49:24.648Z,79.71
2022-10-23T08:50:24.658Z,79.71
2022-10-23T08:51:24.640Z,79.47
2022-10-23T08:52:24.620Z,79.16
2022-10-23T08:53:24.579Z,78.76
2022-10-23T08:54:24.628Z,78.52
2022-10-23T08:55:24.551Z,78.41
2022-10-23T08:56:24.541Z,78.41
2022-10-23T08:57:24.531Z,78.86
2022-10-23T08:58:24.543Z,78.96
2022-10-23T08:59:24.535Z,78.96
2022-10-23T09:00:24.492Z,79.27
2022-10-23T09:01:24.621Z,79.37
2022-10-23T09:02:24.499Z,79.37
2022-10-23T09:03:24.501Z,79.23
2022-10-23T09:04:24.484Z,79.02
2022-10-23T09:05:24.433Z,78.58
2022-10-23T09:06:24.424Z,78.38
2022-10-23T09:07:24.414Z,78.04
2022-10-23T09:08:24.405Z,77.22
2022-10-23T09:09:24.435Z,76.88
2022-10-23T09:10:24.376Z,77.09
2022-10-23T09:11:24.352Z,76.98
2022-10-23T09:12:24.364Z,76.78
2022-10-23T09:13:24.347Z,76.34
2022-10-23T09:14:24.357Z,76.14
2022-10-23T09:15:24.319Z,75.79
2022-10-23T09:16:24.304Z,75.19
2022-10-23T09:17:24.308Z,74.85
2022-10-23T09:18:24.277Z,73.66
2022-10-23T09:19:24.282Z,72.31
2022-10-23T09:20:24.319Z,71.37
2022-10-23T09:21:24.235Z,71.16
2022-10-23T09:22:24.301Z,70.62
2022-10-23T09:23:24.236Z,69.85
2022-10-23T09:24:24.220Z,68.60
2022-10-23T09:25:24.216Z,67.23
2022-10-23T09:26:24.200Z,66.05
2022-10-23T09:27:24.190Z,64.69
2022-10-23T09:28:24.190Z,63.21
2022-10-23T09:29:24.164Z,61.67
2022-10-23T09:30:24.160Z,60.71
2022-10-23T09:31:24.212Z,59.98
2022-10-23T09:32:24.132Z,59.45
2022-10-23T09:33:24.122Z,58.62
2022-10-23T09:34:24.091Z,58.18
2022-10-23T09:35:24.082Z,57.56
2022-10-23T09:36:24.106Z,57.33
2022-10-23T09:37:24.104Z,55.90
2022-10-23T09:38:24.073Z,54.85
2022-10-23T09:39:24.045Z,54.22
2022-10-23T09:40:24.048Z,53.89
2022-10-23T09:41:24.034Z,53.92
2022-10-23T09:42:23.992Z,53.59
2022-10-23T09:43:23.992Z,54.12
2022-10-23T09:44:23.989Z,54.02
2022-10-23T09:45:23.974Z,54.64
2022-10-23T09:46:23.995Z,55.47
2022-10-23T09:47:23.952Z,55.98
2022-10-23T09:48:23.945Z,55.67
2022-10-23T09:49:23.915Z,54.82
2022-10-23T09:50:23.921Z,53.67
2022-10-23T09:51:23.957Z,52.84
2022-10-23T09:52:23.925Z,52.22
2022-10-23T09:53:23.933Z,52.22
2022-10-23T09:54:23.857Z,51.70
2022-10-23T09:55:23.858Z,52.22
2022-10-23T09:56:24.784Z,53.14
2022-10-23T09:57:23.952Z,53.37
2022-10-23T09:58:23.829Z,53.99
2022-10-23T09:59:23.882Z,53.77
2022-10-23T10:00:23.802Z,52.69
2022-10-23T10:01:23.926Z,52.47
2022-10-23T10:02:23.820Z,51.65
2022-10-23T10:03:23.780Z,52.47
2022-10-23T10:04:23.773Z,52.37
2022-10-23T10:05:23.761Z,52.27
2022-10-23T10:06:23.776Z,52.67
2022-10-23T10:07:23.735Z,52.79
2022-10-23T10:08:23.715Z,53.92
2022-10-23T10:09:23.726Z,54.32
2022-10-23T10:10:23.699Z,54.74
2022-10-23T10:11:23.707Z,55.40
2022-10-23T10:12:23.663Z,55.89
2022-10-23T10:13:23.709Z,55.40
2022-10-23T10:14:23.688Z,55.69
2022-10-23T10:15:23.635Z,55.99
2022-10-23T10:16:23.629Z,56.09
2022-10-23T10:17:23.606Z,55.97
2022-10-23T10:18:23.616Z,55.79
2022-10-23T10:19:23.627Z,55.99
2022-10-23T10:20:23.581Z,57.48
2022-10-23T10:21:23.571Z,59.56
2022-10-23T10:22:23.549Z,60.69
2022-10-23T10:23:23.582Z,62.06
2022-10-23T10:24:23.548Z,63.32
2022-10-23T10:25:23.538Z,64.23
2022-10-23T10:26:23.540Z,64.33
2022-10-23T10:27:23.527Z,64.63
2022-10-23T10:28:23.519Z,64.23
2022-10-23T10:29:23.481Z,64.20
2022-10-23T10:30:23.473Z,63.46
2022-10-23T10:31:23.451Z,62.93
2022-10-23T10:32:23.457Z,62.30
2022-10-23T10:33:23.488Z,62.00
2022-10-23T10:34:23.422Z,61.60
2022-10-23T10:35:23.429Z,61.17
2022-10-23T10:36:23.434Z,60.44
2022-10-23T10:37:23.373Z,59.91
2022-10-23T10:38:23.418Z,59.81
2022-10-23T10:39:23.364Z,59.18
2022-10-23T10:40:23.391Z,58.35
2022-10-23T10:41:23.325Z,58.42
2022-10-23T10:42:23.327Z,57.22
2022-10-23T10:43:23.335Z,57.12
2022-10-23T10:44:23.316Z,57.65
2022-10-23T10:45:23.277Z,57.35
2022-10-23T10:46:23.280Z,57.05
2022-10-23T10:47:23.287Z,57.02
2022-10-23T10:48:23.256Z,56.62
2022-10-23T10:49:23.257Z,56.32
2022-10-23T10:50:23.271Z,55.92
2022-10-23T10:51:23.261Z,55.89
2022-10-23T10:52:23.210Z,55.79
2022-10-23T10:53:23.209Z,55.79
2022-10-23T10:54:23.224Z,55.97
2022-10-23T10:55:23.179Z,55.57
2022-10-23T10:56:23.192Z,55.27
2022-10-23T10:57:23.185Z,55.04
2022-10-23T10:58:23.192Z,54.61
2022-10-23T10:59:23.159Z,53.79
2022-10-23T11:00:23.137Z,53.81
2022-10-23T11:01:23.246Z,53.69
2022-10-23T11:02:23.209Z,53.47
2022-10-23T11:03:23.084Z,53.27
2022-10-23T11:04:23.074Z,53.36
2022-10-23T11:05:23.075Z,53.29
2022-10-23T11:06:23.064Z,53.59
2022-10-23T11:07:23.076Z,53.66
2022-10-23T11:08:23.056Z,53.39
2022-10-23T11:09:23.052Z,54.11
2022-10-23T11:10:23.017Z,53.89
2022-10-23T11:11:22.997Z,53.36
2022-10-23T11:12:23.018Z,53.36
2022-10-23T11:13:22.966Z,53.36
2022-10-23T11:14:22.969Z,53.27
2022-10-23T11:15:22.992Z,52.74
2022-10-23T11:16:22.939Z,52.22
2022-10-23T11:17:22.979Z,52.02
2022-10-23T11:18:22.919Z,52.64
2022-10-23T11:19:22.900Z,53.17
2022-10-23T11:20:22.904Z,53.47
2022-10-23T11:21:22.895Z,53.77
2022-10-23T11:22:22.899Z,53.77
2022-10-23T11:23:22.891Z,54.11
2022-10-23T11:24:22.866Z,55.04
2022-10-23T11:25:22.868Z,55.74
2022-10-23T11:26:22.844Z,55.02
2022-10-23T11:27:22.823Z,54.79
2022-10-23T11:28:22.808Z,54.59
2022-10-23T11:29:22.848Z,53.27
2022-10-23T11:30:22.797Z,52.94
2022-10-23T11:31:22.864Z,53.27
2022-10-23T11:32:22.842Z,52.97
2022-10-23T11:33:22.769Z,54.19
2022-10-23T11:34:22.770Z,53.56
2022-10-23T11:35:22.726Z,53.47
2022-10-23T11:36:22.761Z,53.99
2022-10-23T11:37:22.728Z,54.91
2022-10-23T11:38:22.688Z,55.02
2022-10-23T11:39:22.752Z,55.32
2022-10-23T11:40:22.682Z,54.79
2022-10-23T11:41:25.643Z,54.34
2022-10-23T11:42:22.661Z,53.94
2022-10-23T11:43:22.641Z,53.52
2022-10-23T11:44:22.649Z,54.04
2022-10-23T11:45:22.651Z,53.84
2022-10-23T11:46:22.639Z,53.44
2022-10-23T11:47:22.602Z,53.74
2022-10-23T11:48:22.602Z,53.84
2022-10-23T11:49:22.594Z,53.44
2022-10-23T11:50:22.580Z,53.86
2022-10-23T11:51:22.592Z,53.77
2022-10-23T11:52:22.554Z,54.29
2022-10-23T11:53:23.132Z,54.69
2022-10-23T11:54:22.525Z,55.29
2022-10-23T11:55:22.517Z,55.79
2022-10-23T11:56:22.484Z,55.39
2022-10-23T11:57:22.562Z,55.19
2022-10-23T11:58:22.478Z,54.99
2022-10-23T11:59:22.504Z,54.99
2022-10-23T12:00:22.450Z,54.59
2022-10-23T12:01:22.561Z,54.79
2022-10-23T12:02:22.541Z,55.41
2022-10-23T12:03:22.423Z,56.01
2022-10-23T12:04:22.458Z,56.09
2022-10-23T12:05:22.397Z,55.69
2022-10-23T12:06:22.372Z,55.79
2022-10-23T12:07:22.387Z,56.31
2022-10-23T12:08:22.372Z,55.91
2022-10-23T12:09:22.381Z,56.84
2022-10-23T12:10:22.344Z,56.64
2022-10-23T12:11:25.506Z,56.96
2022-10-23T12:12:23.324Z,57.24
2022-10-23T12:13:22.532Z,57.04
2022-10-23T12:14:22.295Z,57.57
2022-10-23T12:15:22.285Z,57.46
2022-10-23T12:16:22.292Z,57.62
2022-10-23T12:17:22.242Z,57.72
2022-10-23T12:18:22.257Z,56.52
2022-10-23T12:19:22.286Z,57.22
2022-10-23T12:20:22.231Z,56.02
2022-10-23T12:21:22.238Z,55.82
2022-10-23T12:22:22.295Z,55.59
2022-10-23T12:23:22.228Z,55.17
2022-10-23T12:24:22.209Z,54.64
2022-10-23T12:25:22.157Z,55.54
2022-10-23T12:26:22.189Z,56.54
2022-10-23T12:27:22.139Z,54.97
2022-10-23T12:28:22.128Z,54.19
2022-10-23T12:29:22.127Z,54.42
2022-10-23T12:30:22.128Z,54.22
2022-10-23T12:31:22.099Z,54.82
2022-10-23T12:32:22.123Z,54.35
2022-10-23T12:33:22.099Z,54.74
2022-10-23T12:34:22.111Z,54.74
2022-10-23T12:35:22.071Z,54.64
2022-10-23T12:36:22.074Z,55.44
2022-10-23T12:37:22.051Z,54.85
2022-10-23T12:38:22.024Z,54.94
2022-10-23T12:39:22.037Z,55.05
2022-10-23T12:40:22.016Z,54.74
2022-10-23T12:41:21.993Z,55.35
2022-10-23T12:42:22.049Z,55.35
2022-10-23T12:43:21.992Z,54.94
2022-10-23T12:44:21.985Z,54.94
2022-10-23T12:45:21.975Z,54.77
2022-10-23T12:46:21.923Z,55.47
2022-10-23T12:47:21.965Z,55.37
2022-10-23T12:48:21.947Z,55.47
2022-10-23T12:49:21.885Z,55.47
2022-10-23T12:50:21.929Z,54.87
2022-10-23T12:51:21.887Z,55.07
2022-10-23T12:52:21.856Z,54.94
2022-10-23T12:53:21.886Z,54.42
2022-10-23T12:54:21.847Z,54.35
2022-10-23T12:55:21.838Z,54.55
2022-10-23T12:56:21.841Z,54.64
2022-10-23T12:57:21.823Z,54.94
2022-10-23T12:58:21.789Z,55.24